Time;durP1;ratioP1;P1;durP2;ratioP2;P2;SDS_P1;SDS_P2;PMS_P1;PMS_P2;Temp;Humidity;BMP_temperature;BMP_pressure;BME280_temperature;BME280_humidity;BME280_pressure;Samples;Min_cycle;Max_cycle;Signal;HPM_P1;HPM_P2
2024/04/01 06:08:12;;;;;;;1.33;1.23;;;17.60;58.70;;;;;;5603443;22;13471252;-85
2024/04/01 06:10:52;;;;;;;1.75;1.42;;;17.50;58.70;;;;;;6083374;23;20168;-84
2024/04/01 06:13:19;;;;;;;1.92;1.35;;;17.60;58.70;;;;;;6084532;23;20184;-84
2024/04/01 06:16:30;;;;;;;1.77;1.55;;;17.60;58.50;;;;;;6083569;23;20156;-84
2024/04/01 06:19:57;;;;;;;1.30;1.17;;;17.70;58.30;;;;;;5999536;23;20631;-88
2024/04/01 06:22:16;;;;;;;1.63;1.40;;;17.70;58.10;;;;;;5989103;23;20178;-85
2024/04/01 06:24:57;;;;;;;1.42;1.33;;;17.70;57.90;;;;;;5965977;24;20152;-84
2024/04/01 06:27:39;;;;;;;1.70;1.30;;;17.70;58.00;;;;;;5941072;24;20169;-84
2024/04/01 06:34:21;;;;;;;1.65;1.40;;;17.80;58.00;;;;;;5911313;24;20165;-85
2024/04/01 06:36:54;;;;;;;1.63;1.52;;;17.80;57.60;;;;;;5914090;24;20161;-84
2024/04/01 06:43:38;;;;;;;;;;;;;;;;;;;;;
2024/04/01 06:46:38;;;;;;;2.15;1.30;;;17.80;57.80;;;;;;5939968;24;20177;-84
2024/04/01 06:56:42;;;;;;;1.45;1.30;;;17.70;57.90;;;;;;6025207;23;20301;-85
2024/04/01 07:02:29;;;;;;;1.30;1.20;;;17.70;58.00;;;;;;6052221;23;20157;-85
2024/04/01 07:05:18;;;;;;;1.70;1.58;;;17.70;58.00;;;;;;6084149;23;20168;-85
2024/04/01 07:08:12;;;;;;;1.38;1.23;;;17.70;58.90;;;;;;6055399;23;20193;-85
2024/04/01 07:10:58;;;;;;;1.35;1.25;;;17.70;58.00;;;;;;6033347;23;20557;-85
2024/04/01 07:14:14;;;;;;;1.60;1.20;;;17.70;58.20;;;;;;5996325;24;20155;-84
2024/04/01 07:20:10;;;;;;;1.20;1.10;;;17.70;58.00;;;;;;5885015;24;20550;-84
2024/04/01 07:22:42;;;;;;;1.20;1.10;;;17.70;58.00;;;;;;5880890;24;20167;-84
2024/04/01 07:25:15;;;;;;;1.20;1.10;;;17.70;58.10;;;;;;5858139;24;20191;-84
2024/04/01 07:27:55;;;;;;;1.25;1.15;;;17.70;58.20;;;;;;5814615;24;20159;-84
2024/04/01 07:30:27;;;;;;;1.40;1.20;;;17.80;58.00;;;;;;5804463;24;20160;-84
2024/04/01 07:33:10;;;;;;;1.60;1.40;;;17.70;58.00;;;;;;5804404;24;20179;-84
2024/04/01 07:35:55;;;;;;;1.25;1.15;;;17.80;57.80;;;;;;5794734;24;20167;-84
2024/04/01 07:42:08;;;;;;;1.33;1.20;;;17.70;57.80;;;;;;5847429;24;20197;-83
2024/04/01 07:45:26;;;;;;;1.40;1.20;;;17.80;57.90;;;;;;5900205;24;20217;-83
2024/04/01 07:48:12;;;;;;;;;;;;;;;;;;;;;
2024/04/01 07:51:34;;;;;;;1.13;1.05;;;17.80;57.60;;;;;;5885594;24;20186;-84
2024/04/01 07:55:12;;;;;;;;;;;;;;;;;;;;;
2024/04/01 08:12:35;;;;;;;1.55;1.45;;;17.80;58.30;;;;;;5972173;23;20207;-84
2024/04/01 08:15:10;;;;;;;1.30;1.20;;;17.90;57.60;;;;;;5952681;24;20199;-84
2024/04/01 08:18:20;;;;;;;1.30;1.17;;;17.80;57.60;;;;;;5951484;24;20155;-84
2024/04/01 10:39:21;;;;;;;2.90;1.10;;;18.20;57.50;;;;;;6219042;22;20258;-84
2024/04/01 10:42:16;;;;;;;5.30;0.95;;;18.20;57.10;;;;;;6114640;23;20187;-84
2024/04/01 10:45:09;;;;;;;3.70;1.10;;;18.20;57.30;;;;;;6114504;23;20136;-84
2024/04/01 10:48:09;;;;;;;3.63;1.40;;;18.20;57.10;;;;;;6073750;23;20152;-84
2024/04/01 10:51:04;;;;;;;3.92;1.20;;;18.30;57.20;;;;;;6139761;23;20160;-85
2024/04/01 10:54:09;;;;;;;3.35;1.02;;;18.30;57.30;;;;;;6051042;23;20226;-85
2024/04/01 10:57:09;;;;;;;3.92;1.30;;;18.30;57.10;;;;;;6029066;23;20165;-84
2024/04/01 11:07:24;;;;;;;;;;;;;;;;;;;;;
2024/04/01 11:10:14;;;;;;;1.20;1.10;;;18.30;57.00;;;;;;6022120;23;20177;-85
2024/04/01 11:13:05;;;;;;;3.28;1.10;;;18.30;57.00;;;;;;5938940;24;20157;-84
2024/04/01 11:15:53;;;;;;;4.75;0.90;;;18.30;57.10;;;;;;5914681;24;20359;-85
2024/04/01 11:19:02;;;;;;;2.90;0.98;;;18.30;57.10;;;;;;5935124;24;20609;-84
2024/04/01 11:21:38;;;;;;;3.97;0.77;;;18.30;56.70;;;;;;5860262;24;20208;-84
2024/04/01 11:25:01;;;;;;;;;;;;;;;;;;;;;
2024/04/01 11:31:16;;;;;;;1.65;1.13;;;18.30;57.10;;;;;;5872471;24;20257;-84
2024/04/01 11:33:54;;;;;;;2.17;1.00;;;18.30;56.90;;;;;;5827012;24;20219;-84
2024/04/01 11:36:51;;;;;;;1.65;0.85;;;18.30;57.20;;;;;;5825777;24;20162;-84
2024/04/01 11:39:21;;;;;;;1.15;0.90;;;18.30;57.00;;;;;;5842175;24;20175;-84
2024/04/01 11:41:55;;;;;;;1.20;1.02;;;18.30;57.20;;;;;;5847244;24;20230;-84
2024/04/01 11:44:32;;;;;;;2.85;0.90;;;18.30;57.50;;;;;;5893693;24;20160;-84
2024/04/01 11:47:11;;;;;;;1.02;0.90;;;18.20;57.10;;;;;;5904217;24;20192;-84
2024/04/01 11:49:42;;;;;;;1.60;1.08;;;18.30;57.20;;;;;;5850250;24;20166;-83
2024/04/01 11:52:34;;;;;;;1.55;0.90;;;18.30;57.30;;;;;;5850822;24;20170;-84
2024/04/01 11:55:49;;;;;;;1.60;0.90;;;18.30;57.10;;;;;;5870505;24;20186;-84
2024/04/01 11:58:14;;;;;;;1.15;0.73;;;18.30;56.90;;;;;;5838316;24;20669;-84
2024/04/01 12:01:17;;;;;;;1.08;0.95;;;18.30;57.00;;;;;;5823553;24;20245;-84
2024/04/01 12:03:51;;;;;;;1.23;0.95;;;18.30;57.00;;;;;;5843559;24;20167;-84
2024/04/01 12:06:27;;;;;;;0.90;0.80;;;18.30;57.20;;;;;;5821603;24;20771;-84
2024/04/01 12:09:24;;;;;;;2.13;0.90;;;18.30;57.30;;;;;;5799711;24;20161;-83
2024/04/01 12:12:02;;;;;;;1.00;0.90;;;18.30;57.20;;;;;;5881796;24;20165;-84
2024/04/01 12:14:34;;;;;;;1.58;0.95;;;18.30;57.30;;;;;;5927802;24;20574;-84
2024/04/01 12:17:01;;;;;;;1.85;1.02;;;18.30;56.90;;;;;;5967307;24;20156;-85
2024/04/01 12:19:30;;;;;;;2.17;0.80;;;18.30;57.00;;;;;;5968760;23;20154;-84
2024/04/01 12:22:18;;;;;;;3.85;0.90;;;18.30;56.80;;;;;;6028521;23;20192;-84
2024/04/01 12:25:08;;;;;;;2.35;0.80;;;18.30;57.00;;;;;;5975874;24;20152;-85
2024/04/01 12:27:37;;;;;;;1.38;1.02;;;18.30;57.20;;;;;;5917921;24;20165;-85
2024/04/01 12:30:18;;;;;;;1.20;0.73;;;18.30;57.10;;;;;;5917704;24;20152;-84
2024/04/01 12:32:46;;;;;;;1.60;1.10;;;18.30;57.00;;;;;;5891828;24;20161;-84
2024/04/01 12:35:20;;;;;;;1.15;1.05;;;18.30;56.90;;;;;;5916984;24;20246;-85
2024/04/01 12:38:08;;;;;;;;;;;;;;;;;;;;;
2024/04/01 12:40:45;;;;;;;1.10;0.88;;;18.30;57.30;;;;;;5926431;24;20603;-85
2024/04/01 12:43:26;;;;;;;2.65;0.90;;;18.30;57.30;;;;;;5889289;24;20745;-85
2024/04/01 12:45:59;;;;;;;1.13;0.88;;;18.40;57.20;;;;;;5843996;24;20596;-85
2024/04/01 12:48:39;;;;;;;2.08;1.17;;;18.30;57.10;;;;;;5858374;24;20180;-84
2024/04/01 12:51:15;;;;;;;;;;;;;;;;;;;;;
2024/04/01 12:54:19;;;;;;;0.75;0.75;;;18.30;57.00;;;;;;5830836;24;20186;-84
2024/04/01 12:57:24;;;;;;;2.40;0.80;;;18.30;57.00;;;;;;5882472;24;20168;-85
2024/04/01 13:00:14;;;;;;;0.70;0.70;;;18.40;57.00;;;;;;5862363;24;20157;-84
2024/04/01 13:02:54;;;;;;;1.52;0.88;;;18.40;56.90;;;;;;5754429;24;20168;-84
2024/04/01 13:05:38;;;;;;;2.17;0.80;;;18.40;56.80;;;;;;5871395;24;20163;-85
2024/04/01 13:08:17;;;;;;;1.83;0.90;;;18.40;56.80;;;;;;5848791;24;20201;-84
2024/04/01 13:11:17;;;;;;;0.63;0.63;;;18.30;57.00;;;;;;5910416;24;20161;-84
2024/04/01 13:14:29;;;;;;;1.00;0.90;;;18.30;57.20;;;;;;5930698;24;20158;-85
2024/04/01 13:17:13;;;;;;;0.88;0.70;;;18.40;56.50;;;;;;5938537;24;20164;-85
2024/04/01 13:19:53;;;;;;;1.20;0.93;;;18.40;57.00;;;;;;5920112;24;20160;-84
2024/04/01 13:22:39;;;;;;;0.98;0.60;;;18.40;56.90;;;;;;5969302;23;20161;-84
2024/04/01 13:25:51;;;;;;;1.75;0.65;;;18.40;57.30;;;;;;6055559;23;20149;-84
2024/04/01 13:28:46;;;;;;;0.75;0.73;;;18.40;57.00;;;;;;6030198;23;20153;-84
2024/04/01 13:31:32;;;;;;;1.15;0.90;;;18.40;56.70;;;;;;5946532;24;20156;-84
2024/04/01 13:34:35;;;;;;;0.98;0.80;;;18.40;57.00;;;;;;5970771;24;20158;-84
2024/04/01 13:37:19;;;;;;;0.90;0.80;;;18.30;57.00;;;;;;5916861;24;20633;-84
2024/04/01 13:40:11;;;;;;;0.52;0.52;;;18.40;56.80;;;;;;5914126;24;20194;-84
2024/04/01 13:42:59;;;;;;;0.93;0.73;;;18.30;56.80;;;;;;5943274;24;20171;-84
2024/04/01 13:45:50;;;;;;;0.70;0.65;;;18.30;56.60;;;;;;5943238;24;20234;-84
2024/04/01 13:48:30;;;;;;;0.60;0.60;;;18.40;56.70;;;;;;5911301;24;20158;-84
2024/04/01 13:51:26;;;;;;;0.75;0.70;;;18.40;56.40;;;;;;5845775;24;20202;-85
2024/04/01 13:54:15;;;;;;;0.82;0.73;;;18.40;56.70;;;;;;5911231;24;20149;-85
2024/04/01 13:57:44;;;;;;;0.80;0.70;;;18.40;56.80;;;;;;5891363;24;20200;-84
2024/04/01 14:00:25;;;;;;;1.05;0.70;;;18.40;56.50;;;;;;5876145;24;20233;-85
2024/04/01 14:03:12;;;;;;;0.70;0.70;;;18.40;56.80;;;;;;5856812;24;20163;-85
2024/04/01 14:06:09;;;;;;;0.60;0.60;;;18.30;57.60;;;;;;5834621;24;20189;-84
2024/04/01 14:08:51;;;;;;;0.85;0.75;;;18.30;56.80;;;;;;5817827;24;20621;-84
2024/04/01 14:11:50;;;;;;;0.60;0.60;;;18.30;57.00;;;;;;5804883;24;20160;-83
2024/04/01 14:14:28;;;;;;;0.70;0.70;;;18.30;57.60;;;;;;5709455;25;20229;-85
2024/04/01 14:17:12;;;;;;;1.02;0.70;;;18.30;57.00;;;;;;5747964;24;20169;-84
2024/04/01 14:19:59;;;;;;;0.73;0.73;;;18.30;56.80;;;;;;5789893;24;20159;-85
2024/04/01 14:22:33;;;;;;;1.08;0.73;;;18.30;56.80;;;;;;5829904;24;21006;-84
2024/04/01 14:25:03;;;;;;;0.60;0.60;;;18.30;56.90;;;;;;5815099;24;20232;-85
2024/04/01 14:27:40;;;;;;;0.60;0.55;;;18.30;56.60;;;;;;5813761;24;20655;-84
2024/04/01 14:30:17;;;;;;;0.70;0.70;;;18.30;56.70;;;;;;5832987;24;20166;-84
2024/04/01 14:32:53;;;;;;;1.55;0.80;;;18.30;56.80;;;;;;5855836;24;20162;-85
2024/04/01 14:35:21;;;;;;;0.57;0.57;;;18.40;56.50;;;;;;5862295;24;20157;-83
2024/04/01 14:37:47;;;;;;;0.90;0.68;;;18.40;56.70;;;;;;5880961;24;20162;-84
2024/04/01 14:40:22;;;;;;;0.70;0.70;;;18.40;57.00;;;;;;5894856;24;20196;-84
2024/04/01 14:43:12;;;;;;;0.88;0.80;;;18.30;57.10;;;;;;5907816;24;20168;-84
2024/04/01 14:46:28;;;;;;;0.85;0.80;;;18.30;57.30;;;;;;5909380;24;20153;-84
2024/04/01 14:49:19;;;;;;;0.95;0.50;;;18.30;57.40;;;;;;5825408;24;20159;-84
2024/04/01 14:51:54;;;;;;;0.70;0.70;;;18.40;57.00;;;;;;5821112;24;20171;-84
2024/04/01 14:54:29;;;;;;;0.60;0.60;;;18.40;56.80;;;;;;5777097;24;20172;-84
2024/04/01 14:56:58;;;;;;;0.65;0.60;;;18.40;56.70;;;;;;5815702;24;20167;-83
2024/04/01 15:00:10;;;;;;;0.85;0.75;;;18.30;57.10;;;;;;5855509;24;20166;-84
2024/04/01 15:06:02;;;;;;;0.60;0.60;;;18.40;56.80;;;;;;5776517;24;20578;-83
2024/04/01 15:08:48;;;;;;;1.35;0.80;;;18.30;56.60;;;;;;5769860;24;20625;-83
2024/04/01 15:11:14;;;;;;;0.60;0.60;;;18.30;56.90;;;;;;5768067;24;20252;-84
2024/04/01 15:13:42;;;;;;;0.50;0.50;;;18.30;56.80;;;;;;5796185;24;20158;-83
2024/04/01 15:16:38;;;;;;;1.20;0.73;;;18.30;57.20;;;;;;5877790;24;20608;-84
2024/04/01 15:19:29;;;;;;;0.52;0.52;;;18.30;57.50;;;;;;5868735;24;20169;-84
2024/04/01 15:22:34;;;;;;;1.27;0.82;;;18.30;57.40;;;;;;5857229;24;20194;-82
2024/04/01 15:25:26;;;;;;;0.60;0.50;;;18.30;57.10;;;;;;5905153;24;20223;-84
2024/04/01 15:27:55;;;;;;;0.55;0.55;;;18.30;56.90;;;;;;5906254;24;20244;-82
2024/04/01 15:30:32;;;;;;;1.10;0.70;;;18.40;57.10;;;;;;5867196;24;20161;-83
2024/04/01 15:33:00;;;;;;;1.17;0.70;;;18.30;57.30;;;;;;5890256;24;20158;-83
2024/04/01 15:36:02;;;;;;;0.50;0.50;;;18.40;57.60;;;;;;5836244;24;20245;-84
2024/04/01 15:38:33;;;;;;;1.60;0.80;;;18.40;57.00;;;;;;5840721;24;20162;-83
2024/04/01 15:41:02;;;;;;;1.48;0.50;;;18.40;57.10;;;;;;5921851;24;20237;-83
2024/04/01 15:43:29;;;;;;;1.90;0.80;;;18.30;57.10;;;;;;5988669;23;20218;-83
2024/04/01 15:45:56;;;;;;;1.83;0.50;;;18.40;56.60;;;;;;6005925;23;20158;-84
2024/04/01 15:48:45;;;;;;;0.70;0.70;;;18.50;56.60;;;;;;6035995;23;20150;-85
2024/04/01 15:51:34;;;;;;;0.90;0.63;;;18.50;56.50;;;;;;6036785;23;20164;-83
2024/04/01 15:54:44;;;;;;;;;;;;;;;;;;;;;
2024/04/01 15:57:43;;;;;;;0.50;0.50;;;18.50;56.70;;;;;;5921368;24;20167;-85
2024/04/01 16:00:12;;;;;;;1.85;0.70;;;18.50;56.50;;;;;;5919337;24;20168;-84
2024/04/01 16:03:03;;;;;;;0.55;0.50;;;18.40;56.80;;;;;;5897393;24;20218;-84
2024/04/01 16:05:41;;;;;;;1.13;0.60;;;18.50;56.60;;;;;;5909258;24;20153;-84
2024/04/01 16:08:27;;;;;;;0.50;0.50;;;18.50;56.70;;;;;;5833140;24;20223;-84
2024/04/01 16:11:08;;;;;;;0.77;0.77;;;18.50;56.70;;;;;;5809623;24;20195;-85
2024/04/01 16:14:34;;;;;;;0.50;0.50;;;18.50;56.50;;;;;;5810141;24;20159;-85
2024/04/01 16:17:33;;;;;;;0.73;0.60;;;18.50;56.70;;;;;;5798993;24;20525;-85
2024/04/01 16:20:06;;;;;;;0.80;0.60;;;18.50;56.50;;;;;;5809979;24;20225;-85
2024/04/01 16:22:35;;;;;;;0.57;0.57;;;18.50;56.40;;;;;;5830312;24;20167;-84
2024/04/01 16:25:14;;;;;;;0.68;0.50;;;18.50;56.40;;;;;;5874632;24;20165;-85
2024/04/01 16:38:17;;;;;;;1.17;0.63;;;18.50;56.30;;;;;;6053758;23;20182;-85
2024/04/01 16:40:46;;;;;;;0.70;0.70;;;18.60;56.30;;;;;;6023132;23;20205;-84
2024/04/01 16:43:30;;;;;;;0.88;0.60;;;18.60;56.30;;;;;;6000470;23;20236;-85
2024/04/01 16:46:02;;;;;;;1.05;0.60;;;18.60;56.40;;;;;;5935871;23;20159;-84
2024/04/01 16:48:30;;;;;;;0.73;0.73;;;18.60;56.40;;;;;;5978318;23;20163;-84
2024/04/01 16:51:07;;;;;;;0.50;0.50;;;18.60;56.20;;;;;;5967478;24;20220;-84
2024/04/01 16:54:10;;;;;;;0.68;0.68;;;18.60;56.20;;;;;;5912144;24;20195;-85
2024/04/01 16:56:49;;;;;;;1.15;0.70;;;18.60;56.30;;;;;;5914109;24;20149;-85
2024/04/01 17:00:06;;;;;;;1.17;0.60;;;18.50;56.60;;;;;;5917558;24;20165;-85
2024/04/01 17:02:26;;;;;;;;;;;;;;;;;;;;;
2024/04/01 17:05:08;;;;;;;0.60;0.60;;;18.50;56.20;;;;;;5919139;24;20165;-84
2024/04/01 17:07:43;;;;;;;1.33;0.70;;;18.60;56.20;;;;;;5862019;24;20162;-84
2024/04/01 17:10:24;;;;;;;1.27;0.60;;;18.60;56.20;;;;;;5859359;24;20162;-85
2024/04/01 17:13:03;;;;;;;0.80;0.70;;;18.50;56.50;;;;;;5881149;24;20164;-85
2024/04/01 17:15:32;;;;;;;1.05;0.95;;;18.60;56.60;;;;;;5963167;24;20475;-84
2024/04/01 17:17:59;;;;;;;1.58;0.57;;;18.50;55.80;;;;;;5935085;24;20160;-84
2024/04/01 17:20:25;;;;;;;1.00;0.60;;;18.60;56.60;;;;;;5834914;24;20206;-84
2024/04/01 17:23:04;;;;;;;1.90;0.90;;;18.60;55.80;;;;;;5859144;24;20165;-85
2024/04/01 17:25:30;;;;;;;1.75;0.40;;;18.60;56.00;;;;;;5806782;24;20156;-85
2024/04/01 17:28:20;;;;;;;0.85;0.70;;;18.60;56.00;;;;;;5830195;24;20223;-85
2024/04/01 17:30:53;;;;;;;2.47;0.60;;;18.60;56.00;;;;;;5795534;24;20164;-85
2024/04/01 17:33:33;;;;;;;1.45;0.60;;;18.60;55.70;;;;;;5781370;24;20195;-85
2024/04/01 17:36:09;;;;;;;0.60;0.50;;;18.60;55.70;;;;;;5803615;24;20167;-85
2024/04/01 17:39:03;;;;;;;0.50;0.50;;;18.60;56.30;;;;;;5782232;24;20167;-84
2024/04/01 17:48:46;;;;;;;0.57;0.40;;;18.50;56.40;;;;;;5802890;24;20152;-84
2024/04/01 17:51:20;;;;;;;1.25;0.55;;;18.50;56.40;;;;;;5810029;24;20164;-84
2024/04/01 17:54:55;;;;;;;0.75;0.50;;;18.50;56.90;;;;;;5772978;24;20236;-85
2024/04/01 17:57:32;;;;;;;0.40;0.40;;;18.50;56.90;;;;;;5895937;24;20224;-85
2024/04/01 18:00:12;;;;;;;0.70;0.60;;;18.50;56.20;;;;;;5885124;24;20164;-85
2024/04/01 18:02:46;;;;;;;0.73;0.70;;;18.50;56.60;;;;;;5863831;24;20172;-84
2024/04/01 18:05:15;;;;;;;0.50;0.40;;;18.50;56.20;;;;;;5885867;24;20157;-86
2024/04/01 18:08:01;;;;;;;;;;;;;;;;;;;;;
2024/04/01 18:10:51;;;;;;;12.93;1.60;;;18.60;56.70;;;;;;5861812;24;20177;-83
2024/04/01 18:13:38;;;;;;;5.95;0.68;;;18.50;56.60;;;;;;5878131;24;20165;-85
2024/04/01 18:16:07;;;;;;;3.83;0.93;;;18.50;56.50;;;;;;5781059;24;20185;-85
2024/04/01 18:18:52;;;;;;;0.73;0.57;;;18.50;56.60;;;;;;5823863;24;20179;-84
2024/04/01 18:21:30;;;;;;;2.90;0.98;;;18.50;56.50;;;;;;5796419;24;20188;-85
2024/04/01 18:28:03;;;;;;;0.60;0.60;;;18.50;56.70;;;;;;5803429;24;20221;-84
2024/04/01 18:34:06;;;;;;;3.53;0.60;;;18.60;56.00;;;;;;5800227;24;20162;-85
2024/04/01 18:36:38;;;;;;;1.40;0.60;;;18.60;56.20;;;;;;5731668;24;20165;-84
2024/04/01 18:39:07;;;;;;;0.80;0.55;;;18.50;55.90;;;;;;5801545;24;20163;-84
2024/04/01 18:41:43;;;;;;;1.83;0.60;;;18.60;55.90;;;;;;5841875;24;20250;-84
2024/04/01 18:44:20;;;;;;;1.00;0.50;;;18.60;55.80;;;;;;5880470;24;20163;-85
2024/04/01 18:47:07;;;;;;;0.70;0.57;;;18.60;56.00;;;;;;5934950;24;20228;-84
2024/04/01 18:53:51;;;;;;;2.38;0.60;;;18.60;56.00;;;;;;5929410;24;20182;-84
2024/04/01 19:18:03;;;;;;;;;;;;;;;;;;;;;
2024/04/01 19:20:44;;;;;;;0.47;0.47;;;18.60;55.50;;;;;;5808357;24;20226;-85
2024/04/01 19:23:13;;;;;;;0.50;0.50;;;18.60;55.70;;;;;;5830160;24;20189;-85
2024/04/01 19:29:57;;;;;;;0.73;0.50;;;18.60;55.60;;;;;;5828646;24;20159;-85
2024/04/01 19:33:23;;;;;;;1.40;0.50;;;18.60;55.80;;;;;;5803387;24;20163;-85
2024/04/01 19:35:59;;;;;;;0.40;0.40;;;18.60;56.20;;;;;;5827765;24;20167;-85
2024/04/01 19:38:36;;;;;;;0.77;0.60;;;18.50;55.80;;;;;;5881346;24;20197;-85
2024/04/01 19:41:12;;;;;;;0.73;0.40;;;18.50;55.90;;;;;;5851345;24;20202;-84
2024/04/01 19:43:43;;;;;;;0.45;0.43;;;18.50;55.80;;;;;;5809856;24;20155;-85
2024/04/01 19:46:20;;;;;;;1.20;0.47;;;18.40;55.80;;;;;;5787919;24;20230;-85
2024/04/01 19:48:48;;;;;;;1.40;0.60;;;18.50;55.60;;;;;;5809189;24;20167;-85
2024/04/01 19:51:16;;;;;;;1.33;0.55;;;18.50;55.50;;;;;;5743083;24;20164;-84
2024/04/01 19:54:16;;;;;;;0.45;0.45;;;18.50;55.80;;;;;;5777568;24;20250;-84
2024/04/01 19:56:43;;;;;;;1.13;0.50;;;18.50;56.10;;;;;;5832271;24;20165;-84
2024/04/01 19:59:19;;;;;;;0.98;0.50;;;18.50;55.50;;;;;;5884117;24;20157;-85
2024/04/01 20:01:58;;;;;;;0.75;0.60;;;18.40;56.30;;;;;;5807872;24;20186;-85
2024/04/01 20:04:42;;;;;;;0.88;0.63;;;18.40;56.40;;;;;;5777876;24;20564;-85
2024/04/01 20:07:13;;;;;;;0.50;0.40;;;18.40;56.70;;;;;;5778017;24;20153;-84
2024/04/01 20:09:39;;;;;;;0.73;0.50;;;18.30;56.80;;;;;;5747419;25;20166;-84
2024/04/01 20:12:07;;;;;;;1.10;0.70;;;18.30;56.90;;;;;;5725746;25;20176;-84
2024/04/01 20:14:54;;;;;;;0.63;0.50;;;18.30;56.80;;;;;;5705878;25;20166;-84
2024/04/01 20:17:20;;;;;;;1.15;0.38;;;18.30;56.80;;;;;;5700636;25;20169;-85
2024/04/01 20:20:15;;;;;;;0.57;0.57;;;18.20;56.80;;;;;;5704459;25;20691;-84
2024/04/01 20:22:47;;;;;;;0.50;0.50;;;18.30;56.90;;;;;;5736343;25;20991;-84
2024/04/01 20:25:43;;;;;;;1.38;0.50;;;18.30;56.90;;;;;;5731530;25;20246;-85
2024/04/01 20:28:32;;;;;;;0.52;0.50;;;18.30;56.80;;;;;;5708223;25;20165;-84
2024/04/01 20:31:20;;;;;;;0.50;0.50;;;18.20;56.90;;;;;;5791273;24;20167;-84
2024/04/01 20:34:24;;;;;;;0.60;0.50;;;18.20;56.90;;;;;;5828054;24;20155;-85
2024/04/01 20:37:14;;;;;;;0.50;0.50;;;18.20;56.80;;;;;;5833524;24;20209;-84
2024/04/01 20:40:01;;;;;;;0.73;0.57;;;18.20;56.90;;;;;;5884000;24;20158;-85
2024/04/01 20:43:21;;;;;;;0.60;0.40;;;18.30;56.80;;;;;;5883963;24;20520;-84
2024/04/01 20:45:58;;;;;;;0.50;0.50;;;18.20;56.90;;;;;;5854332;24;20168;-85
2024/04/01 20:48:28;;;;;;;0.50;0.50;;;18.20;56.90;;;;;;5909957;24;20337;-85
2024/04/01 20:50:58;;;;;;;0.50;0.50;;;18.20;56.80;;;;;;5911063;24;20179;-84
2024/04/01 20:53:38;;;;;;;1.85;0.50;;;18.20;56.90;;;;;;5910932;24;20193;-84
2024/04/01 20:56:25;;;;;;;0.50;0.40;;;18.20;56.90;;;;;;5856670;24;20162;-84
2024/04/01 20:59:21;;;;;;;0.45;0.45;;;18.20;56.90;;;;;;5879258;24;20159;-84
2024/04/01 21:02:29;;;;;;;0.40;0.40;;;18.30;56.90;;;;;;5860322;24;20249;-84
2024/04/01 21:05:22;;;;;;;0.50;0.45;;;18.20;56.80;;;;;;5857056;24;20158;-84
2024/04/01 21:08:40;;;;;;;0.40;0.40;;;18.20;56.70;;;;;;5821889;24;20201;-84
2024/04/01 21:11:14;;;;;;;1.48;0.60;;;18.20;56.90;;;;;;5855670;24;20167;-85
2024/04/01 21:13:57;;;;;;;0.98;0.60;;;18.20;56.70;;;;;;5834229;24;20180;-85
2024/04/01 21:16:50;;;;;;;1.20;0.50;;;18.10;57.10;;;;;;5875353;24;20154;-85
2024/04/01 21:20:02;;;;;;;0.60;0.60;;;18.10;56.90;;;;;;5854417;24;20239;-85
2024/04/01 21:22:55;;;;;;;0.93;0.60;;;18.10;56.90;;;;;;5909906;24;20244;-85
2024/04/01 21:25:39;;;;;;;0.52;0.52;;;18.10;57.10;;;;;;5891157;24;20153;-85
2024/04/01 21:28:05;;;;;;;0.50;0.50;;;18.10;57.10;;;;;;5856450;24;20159;-84
2024/04/01 21:31:03;;;;;;;0.50;0.40;;;18.20;57.10;;;;;;5882217;24;20162;-84
2024/04/01 21:33:43;;;;;;;1.00;0.40;;;18.10;57.50;;;;;;5860922;24;20162;-84
2024/04/01 21:36:10;;;;;;;0.60;0.60;;;18.10;56.90;;;;;;5842665;24;20253;-84
2024/04/01 21:39:01;;;;;;;1.33;0.50;;;18.10;56.80;;;;;;5829070;24;20167;-85
2024/04/01 21:41:55;;;;;;;0.57;0.50;;;18.10;57.10;;;;;;5801933;24;20271;-84
2024/04/01 21:45:01;;;;;;;0.32;0.32;;;18.10;56.80;;;;;;5766992;24;20231;-85
2024/04/01 21:47:40;;;;;;;0.40;0.40;;;18.10;57.00;;;;;;5707767;25;20163;-86
2024/04/01 21:50:35;;;;;;;0.50;0.50;;;18.10;57.00;;;;;;5694033;25;20167;-84
2024/04/01 21:53:15;;;;;;;1.08;0.50;;;18.10;57.70;;;;;;5726667;25;20170;-84
2024/04/01 21:56:10;;;;;;;0.43;0.43;;;18.10;57.10;;;;;;5743464;25;20237;-86
2024/04/01 21:58:53;;;;;;;0.77;0.50;;;18.10;57.10;;;;;;5679454;25;20611;-84
2024/04/01 22:01:24;;;;;;;0.47;0.47;;;18.00;57.10;;;;;;5681282;25;20259;-85
2024/04/01 22:04:12;;;;;;;0.88;0.63;;;18.00;56.90;;;;;;5719435;25;20637;-84
2024/04/01 22:06:50;;;;;;;2.05;0.40;;;18.00;56.90;;;;;;5743715;24;20169;-84
2024/04/01 22:09:37;;;;;;;0.52;0.52;;;18.10;56.80;;;;;;5702887;24;20169;-85
2024/04/01 22:12:36;;;;;;;0.75;0.52;;;18.10;56.90;;;;;;5834361;24;20159;-85
2024/04/01 22:15:18;;;;;;;0.40;0.40;;;18.00;57.00;;;;;;5828805;24;20164;-85
2024/04/01 22:17:59;;;;;;;0.60;0.60;;;18.00;56.90;;;;;;5807701;24;20163;-84
2024/04/01 22:20:29;;;;;;;0.60;0.60;;;18.00;57.10;;;;;;5724315;25;20170;-84
2024/04/01 22:23:04;;;;;;;0.60;0.50;;;18.00;57.10;;;;;;5727397;24;20190;-85
2024/04/01 22:25:35;;;;;;;0.60;0.52;;;18.00;57.00;;;;;;5781690;24;20156;-84
2024/04/01 22:28:46;;;;;;;0.68;0.60;;;18.00;56.90;;;;;;5781399;24;20163;-85
2024/04/01 22:31:12;;;;;;;0.73;0.52;;;18.00;56.90;;;;;;5805691;24;20193;-84
2024/04/01 22:34:12;;;;;;;1.00;0.60;;;18.00;56.90;;;;;;5807370;24;20163;-85
2024/04/01 22:37:25;;;;;;;0.40;0.40;;;18.00;57.10;;;;;;5776710;24;20292;-85
2024/04/01 22:40:09;;;;;;;0.70;0.50;;;18.00;57.00;;;;;;5745808;24;20175;-85
2024/04/01 22:42:44;;;;;;;0.55;0.55;;;18.00;57.20;;;;;;5749779;24;20197;-85
2024/04/01 22:45:52;;;;;;;0.90;0.60;;;18.00;57.10;;;;;;5750104;25;20157;-84
2024/04/01 22:48:28;;;;;;;0.75;0.50;;;18.00;57.30;;;;;;5694722;25;20158;-84
2024/04/01 22:51:33;;;;;;;2.17;0.82;;;18.00;57.00;;;;;;5645261;25;20230;-84
2024/04/01 22:54:00;;;;;;;0.70;0.60;;;17.90;57.00;;;;;;5750161;25;20367;-84
2024/04/01 22:57:19;;;;;;;0.40;0.40;;;17.90;57.00;;;;;;5724201;25;20170;-84
2024/04/01 23:00:18;;;;;;;0.50;0.50;;;17.90;57.20;;;;;;5704787;25;20166;-84
2024/04/01 23:03:38;;;;;;;0.77;0.60;;;17.90;56.90;;;;;;5697692;25;20198;-84
2024/04/01 23:06:49;;;;;;;0.50;0.40;;;18.00;57.00;;;;;;5648139;25;20164;-85
2024/04/01 23:09:27;;;;;;;0.40;0.40;;;18.00;57.00;;;;;;5729869;25;20173;-84
2024/04/01 23:12:34;;;;;;;0.50;0.50;;;17.90;56.90;;;;;;5724757;25;20181;-85
2024/04/01 23:15:03;;;;;;;1.27;0.60;;;18.00;56.80;;;;;;5643832;25;20165;-85
2024/04/01 23:18:36;;;;;;;1.00;0.80;;;17.90;56.60;;;;;;5624145;25;20176;-84
2024/04/01 23:21:18;;;;;;;0.60;0.60;;;18.00;56.80;;;;;;5613341;25;20215;-84
2024/04/01 23:23:58;;;;;;;0.50;0.50;;;18.00;56.80;;;;;;5609384;25;20164;-84
2024/04/01 23:26:24;;;;;;;0.98;0.55;;;18.00;56.70;;;;;;5679939;25;20159;-85
2024/04/01 23:28:56;;;;;;;0.55;0.50;;;17.90;56.70;;;;;;5747058;25;20166;-85
2024/04/01 23:31:25;;;;;;;0.55;0.55;;;17.90;56.60;;;;;;5748227;25;20173;-85
2024/04/01 23:34:12;;;;;;;0.80;0.80;;;17.90;56.70;;;;;;5748083;25;20170;-84
2024/04/01 23:36:57;;;;;;;;;;;;;;;;;;;;;
2024/04/01 23:39:45;;;;;;;0.55;0.55;;;17.90;56.60;;;;;;5760308;24;20554;-84
2024/04/01 23:43:08;;;;;;;;;;;;;;;;;;;;;
2024/04/01 23:45:47;;;;;;;0.55;0.50;;;17.90;56.70;;;;;;5781678;24;20188;-85
2024/04/01 23:48:22;;;;;;;0.68;0.60;;;17.90;56.70;;;;;;5803482;24;20156;-84
2024/04/01 23:51:17;;;;;;;0.75;0.50;;;17.90;56.70;;;;;;5790170;24;20159;-84
2024/04/01 23:53:55;;;;;;;0.65;0.60;;;17.90;56.70;;;;;;5784798;24;20182;-84
2024/04/01 23:56:49;;;;;;;;;;;;;;;;;;;;;
2024/04/01 23:59:25;;;;;;;1.13;0.60;;;17.90;56.80;;;;;;5790415;24;20267;-85
